createdAt,value
2023-03-13T00:01:33.909Z,45.57
2023-03-13T00:04:01.222Z,45.52
2023-03-13T00:06:32.304Z,45.41
2023-03-13T00:09:00.696Z,45.59
2023-03-13T00:11:27.996Z,45.58
2023-03-13T00:13:56.574Z,45.02
2023-03-13T00:16:23.676Z,45.52
2023-03-13T00:18:53.063Z,45.45
2023-03-13T00:21:22.461Z,45.56
2023-03-13T00:23:49.711Z,45.64
2023-03-13T00:26:19.006Z,45.63
2023-03-13T00:28:46.261Z,45.79
2023-03-13T00:31:14.313Z,45.50
2023-03-13T00:33:43.607Z,45.62
2023-03-13T00:36:15.811Z,45.77
2023-03-13T00:38:42.795Z,46.14
2023-03-13T00:41:12.659Z,45.78
2023-03-13T00:43:40.331Z,45.65
2023-03-13T00:46:07.304Z,45.68
2023-03-13T00:48:34.261Z,46.16
2023-03-13T00:51:01.870Z,45.73
2023-03-13T00:53:28.842Z,45.96
2023-03-13T00:55:56.737Z,45.98
2023-03-13T00:58:24.295Z,46.29
2023-03-13T01:00:51.666Z,46.09
2023-03-13T01:03:18.808Z,46.43
2023-03-13T01:05:45.447Z,46.23
2023-03-13T01:08:12.122Z,46.41
2023-03-13T01:10:38.610Z,46.14
2023-03-13T01:13:06.739Z,46.49
2023-03-13T01:15:36.275Z,46.79
2023-03-13T01:18:03.056Z,46.31
2023-03-13T01:20:31.006Z,46.44
2023-03-13T01:22:57.485Z,46.75
2023-03-13T01:25:24.030Z,47.01
2023-03-13T01:27:50.518Z,47.12
2023-03-13T01:30:17.264Z,46.77
2023-03-13T01:32:43.775Z,46.94
2023-03-13T01:35:10.445Z,46.77
2023-03-13T01:37:37.002Z,47.12
2023-03-13T01:40:03.885Z,47.05
2023-03-13T01:42:30.404Z,47.44
2023-03-13T01:44:57.763Z,47.32
2023-03-13T01:47:24.306Z,47.44
2023-03-13T01:49:52.603Z,47.37
2023-03-13T01:52:19.054Z,47.76
2023-03-13T01:55:08.497Z,48.12
2023-03-13T01:57:42.848Z,48.33
2023-03-13T02:00:12.295Z,47.47
2023-03-13T02:02:43.182Z,48.02
2023-03-13T02:05:09.874Z,47.96
2023-03-13T02:07:44.939Z,48.23
2023-03-13T02:10:13.444Z,48.00
2023-03-13T02:12:40.992Z,48.10
2023-03-13T02:15:13.346Z,48.53
2023-03-13T02:17:41.243Z,48.27
2023-03-13T02:20:08.797Z,48.14
2023-03-13T02:22:56.508Z,48.23
2023-03-13T02:25:46.334Z,48.59
2023-03-13T02:28:24.695Z,48.65
2023-03-13T02:30:55.103Z,48.50
2023-03-13T02:33:26.159Z,48.63
2023-03-13T02:35:54.201Z,48.70
2023-03-13T02:38:25.264Z,48.67
2023-03-13T02:40:53.428Z,48.70
2023-03-13T02:43:26.646Z,49.10
2023-03-13T02:46:18.621Z,48.98
2023-03-13T02:48:56.761Z,49.03
2023-03-13T02:51:45.898Z,49.24
2023-03-13T02:54:24.863Z,48.54
2023-03-13T02:56:56.111Z,48.58
2023-03-13T02:59:23.465Z,49.02
2023-03-13T03:01:52.557Z,48.66
2023-03-13T03:04:21.351Z,49.15
2023-03-13T03:06:48.448Z,48.77
2023-03-13T03:09:15.840Z,49.17
2023-03-13T03:11:42.701Z,49.25
2023-03-13T03:14:10.496Z,49.36
2023-03-13T03:16:37.926Z,48.79
2023-03-13T03:19:04.847Z,48.73
2023-03-13T03:21:31.384Z,49.54
2023-03-13T03:23:58.067Z,49.15
2023-03-13T03:26:24.654Z,49.18
2023-03-13T03:28:51.452Z,49.08
2023-03-13T03:31:18.508Z,48.89
2023-03-13T03:33:45.785Z,49.11
2023-03-13T03:36:14.980Z,49.09
2023-03-13T03:38:42.605Z,48.63
2023-03-13T03:41:10.811Z,48.95
2023-03-13T03:43:37.713Z,49.35
2023-03-13T03:46:04.387Z,49.00
2023-03-13T03:48:30.867Z,49.31
2023-03-13T03:50:57.415Z,49.19
2023-03-13T03:53:24.113Z,49.49
2023-03-13T03:55:50.620Z,49.26
2023-03-13T03:58:17.410Z,49.17
2023-03-13T04:00:45.660Z,49.58
2023-03-13T04:03:12.424Z,49.47
2023-03-13T04:05:39.085Z,49.11
2023-03-13T04:08:06.423Z,49.64
2023-03-13T04:10:32.965Z,49.18
2023-03-13T04:12:59.523Z,49.64
2023-03-13T04:15:26.081Z,49.23
2023-03-13T04:17:52.650Z,49.71
2023-03-13T04:20:19.266Z,49.38
2023-03-13T04:22:45.749Z,49.37
2023-03-13T04:25:12.304Z,49.29
2023-03-13T04:27:38.900Z,49.17
2023-03-13T04:30:07.056Z,49.48
2023-03-13T04:32:33.659Z,49.49
2023-03-13T04:35:00.334Z,49.85
2023-03-13T04:37:26.994Z,49.54
2023-03-13T04:39:53.499Z,50.11
2023-03-13T04:42:20.083Z,49.77
2023-03-13T04:44:46.593Z,49.64
2023-03-13T04:47:13.063Z,49.77
2023-03-13T04:49:39.646Z,49.73
2023-03-13T04:52:06.591Z,50.17
2023-03-13T04:54:33.153Z,49.71
2023-03-13T04:56:59.702Z,49.69
2023-03-13T04:59:26.178Z,49.97
2023-03-13T05:01:52.737Z,49.92
2023-03-13T05:04:19.271Z,50.03
2023-03-13T05:06:45.782Z,49.54
2023-03-13T05:09:12.307Z,49.66
2023-03-13T05:11:40.290Z,50.33
2023-03-13T05:14:09.031Z,49.71
2023-03-13T05:16:35.549Z,49.82
2023-03-13T05:19:02.423Z,49.45
2023-03-13T05:21:28.977Z,49.60
2023-03-13T05:23:55.514Z,49.93
2023-03-13T05:26:22.079Z,50.11
2023-03-13T05:28:48.558Z,49.96
2023-03-13T05:31:15.127Z,50.12
2023-03-13T05:33:41.652Z,49.81
2023-03-13T05:36:08.509Z,49.97
2023-03-13T05:38:35.022Z,49.65
2023-03-13T05:41:01.530Z,49.91
2023-03-13T05:43:28.063Z,50.42
2023-03-13T05:45:54.573Z,49.82
2023-03-13T05:48:21.110Z,50.27
2023-03-13T05:50:47.594Z,49.85
2023-03-13T05:53:14.118Z,49.71
2023-03-13T05:55:40.703Z,49.61
2023-03-13T05:58:07.178Z,49.92
2023-03-13T06:00:33.726Z,50.11
2023-03-13T06:03:00.217Z,49.74
2023-03-13T06:05:26.711Z,49.79
2023-03-13T06:07:53.271Z,49.74
2023-03-13T06:10:19.762Z,49.82
2023-03-13T06:12:53.739Z,50.22
2023-03-13T06:15:20.343Z,50.10
2023-03-13T06:17:46.941Z,49.94
2023-03-13T06:20:13.658Z,49.73
2023-03-13T06:22:41.431Z,50.10
2023-03-13T06:25:08.429Z,50.38
2023-03-13T06:27:35.563Z,50.09
2023-03-13T06:30:02.232Z,49.91
2023-03-13T06:32:29.110Z,50.18
2023-03-13T06:34:55.699Z,49.96
2023-03-13T06:37:22.233Z,50.09
2023-03-13T06:39:48.773Z,50.04
2023-03-13T06:42:15.286Z,49.97
2023-03-13T06:44:41.949Z,49.89
2023-03-13T06:47:08.522Z,50.38
2023-03-13T06:49:35.923Z,50.50
2023-03-13T06:52:02.443Z,50.14
2023-03-13T06:54:28.965Z,50.54
2023-03-13T06:56:55.512Z,50.27
2023-03-13T06:59:22.114Z,50.13
2023-03-13T07:01:48.651Z,50.48
2023-03-13T07:04:16.303Z,50.71
2023-03-13T07:06:43.324Z,50.27
2023-03-13T07:09:10.575Z,50.40
2023-03-13T07:11:37.217Z,50.76
2023-03-13T07:14:15.932Z,50.19
2023-03-13T07:16:44.203Z,50.08
2023-03-13T07:19:10.781Z,50.45
2023-03-13T07:21:37.356Z,50.43
2023-03-13T07:24:04.192Z,50.43
2023-03-13T07:26:30.784Z,50.34
2023-03-13T07:28:57.479Z,50.38
2023-03-13T07:31:24.679Z,50.90
2023-03-13T07:33:56.257Z,50.39
2023-03-13T07:36:23.754Z,50.30
2023-03-13T07:38:51.507Z,50.76
2023-03-13T07:41:18.738Z,50.77
2023-03-13T07:43:46.325Z,50.58
2023-03-13T07:46:15.284Z,51.11
2023-03-13T07:48:43.232Z,50.43
2023-03-13T07:51:19.056Z,50.46
2023-03-13T07:53:50.521Z,50.38
2023-03-13T07:56:21.970Z,50.81
2023-03-13T07:58:49.194Z,50.91
2023-03-13T08:01:26.049Z,51.00
2023-03-13T08:03:55.752Z,50.96
2023-03-13T08:06:24.588Z,50.74
2023-03-13T08:08:52.107Z,51.05
2023-03-13T08:11:21.292Z,51.20
2023-03-13T08:13:50.041Z,50.97
2023-03-13T08:16:35.985Z,51.15
2023-03-13T08:19:05.906Z,50.72
2023-03-13T08:21:35.129Z,51.06
2023-03-13T08:24:07.591Z,51.13
2023-03-13T08:26:36.502Z,51.42
2023-03-13T08:29:06.542Z,50.56
2023-03-13T08:31:36.191Z,51.03
2023-03-13T08:34:03.100Z,50.54
2023-03-13T08:36:37.249Z,50.84
2023-03-13T08:39:13.626Z,51.16
2023-03-13T08:41:42.949Z,50.79
2023-03-13T08:44:15.110Z,51.05
2023-03-13T08:46:42.206Z,51.50
2023-03-13T08:49:09.769Z,51.06
2023-03-13T08:51:37.140Z,51.40
2023-03-13T08:54:05.313Z,50.75
2023-03-13T08:56:32.688Z,51.13
2023-03-13T08:59:01.589Z,51.51
2023-03-13T09:01:30.584Z,51.03
2023-03-13T09:03:57.907Z,51.05
2023-03-13T09:06:24.616Z,51.56
2023-03-13T09:08:51.128Z,51.28
2023-03-13T09:11:20.060Z,51.24
2023-03-13T09:13:49.485Z,51.62
2023-03-13T09:16:19.182Z,51.56
2023-03-13T09:18:46.605Z,51.01
2023-03-13T09:21:19.540Z,51.52
2023-03-13T09:23:46.254Z,51.36
2023-03-13T09:26:13.538Z,51.05
2023-03-13T09:28:42.097Z,50.59
2023-03-13T09:31:09.613Z,50.73
2023-03-13T09:33:36.655Z,50.74
2023-03-13T09:36:04.392Z,50.88
2023-03-13T09:38:31.269Z,51.32
2023-03-13T09:41:06.557Z,50.66
2023-03-13T09:43:42.249Z,51.36
2023-03-13T09:46:18.026Z,50.90
2023-03-13T09:48:57.228Z,50.72
2023-03-13T09:51:46.959Z,50.80
2023-03-13T09:54:40.769Z,50.47
2023-03-13T09:57:15.288Z,50.32
2023-03-13T09:59:52.586Z,50.31
2023-03-13T10:02:29.151Z,50.37
2023-03-13T10:05:10.781Z,50.24
2023-03-13T10:07:37.391Z,49.55
2023-03-13T10:10:08.050Z,49.73
2023-03-13T10:12:49.083Z,49.76
2023-03-13T10:15:34.399Z,49.97
2023-03-13T10:18:13.216Z,49.72
2023-03-13T10:20:42.785Z,49.73
2023-03-13T10:23:40.332Z,49.81
2023-03-13T10:26:15.567Z,49.44
2023-03-13T10:28:42.095Z,49.38
2023-03-13T10:31:19.844Z,49.48
2023-03-13T10:33:46.967Z,49.75
2023-03-13T10:36:14.305Z,49.44
2023-03-13T10:38:52.393Z,49.27
2023-03-13T10:41:31.100Z,49.22
2023-03-13T10:44:04.878Z,49.30
2023-03-13T10:46:32.999Z,49.43
2023-03-13T10:49:13.252Z,49.00
2023-03-13T10:51:40.648Z,48.90
2023-03-13T10:54:21.933Z,48.87
2023-03-13T10:56:49.806Z,48.93
2023-03-13T10:59:24.913Z,48.71
2023-03-13T11:01:53.605Z,49.02
2023-03-13T11:04:33.174Z,49.09
2023-03-13T11:07:15.120Z,48.85
2023-03-13T11:09:41.597Z,48.91
2023-03-13T11:12:17.615Z,48.72
2023-03-13T11:14:45.752Z,48.18
2023-03-13T11:17:30.388Z,48.70
2023-03-13T11:20:17.819Z,48.62
2023-03-13T11:22:59.935Z,48.24
2023-03-13T11:26:06.516Z,48.51
2023-03-13T11:28:58.874Z,48.81
2023-03-13T11:31:40.511Z,48.61
2023-03-13T11:34:30.682Z,48.62
2023-03-13T11:37:04.497Z,48.72
2023-03-13T11:39:55.853Z,48.03
2023-03-13T11:42:40.814Z,48.38
2023-03-13T11:45:31.799Z,48.39
2023-03-13T11:48:30.952Z,48.25
2023-03-13T11:51:20.194Z,48.23
2023-03-13T11:54:05.491Z,47.94
2023-03-13T11:56:47.121Z,48.21
2023-03-13T11:59:13.777Z,48.46
2023-03-13T12:01:46.238Z,47.89
2023-03-13T12:04:35.541Z,47.93
2023-03-13T12:07:34.081Z,47.74
2023-03-13T12:10:03.785Z,47.93
2023-03-13T12:12:49.576Z,47.91
2023-03-13T12:15:19.394Z,47.29
2023-03-13T12:17:54.870Z,47.69
2023-03-13T12:20:28.688Z,47.76
2023-03-13T12:23:04.467Z,47.83
2023-03-13T12:25:39.659Z,47.68
2023-03-13T12:28:30.737Z,47.67
2023-03-13T12:31:26.775Z,46.89
2023-03-13T12:34:03.417Z,47.42
2023-03-13T12:36:38.478Z,47.48
2023-03-13T12:39:18.083Z,47.01
2023-03-13T12:41:53.204Z,47.57
2023-03-13T12:44:20.825Z,47.24
2023-03-13T12:47:21.551Z,46.73
2023-03-13T12:50:20.962Z,47.29
2023-03-13T12:53:08.398Z,46.37
2023-03-13T12:56:03.352Z,47.23
2023-03-13T12:58:41.392Z,46.41
2023-03-13T13:01:15.872Z,46.91
2023-03-13T13:03:56.363Z,46.53
2023-03-13T13:06:23.421Z,46.74
2023-03-13T13:08:52.841Z,46.58
2023-03-13T13:11:37.439Z,45.95
2023-03-13T13:14:19.127Z,46.01
2023-03-13T13:16:58.061Z,46.69
2023-03-13T13:19:24.592Z,46.19
2023-03-13T13:22:28.489Z,46.23
2023-03-13T13:24:57.692Z,46.18
2023-03-13T13:27:34.485Z,46.40
2023-03-13T13:30:03.921Z,46.13
2023-03-13T13:32:42.228Z,46.45
2023-03-13T13:35:27.648Z,46.53
2023-03-13T13:38:29.077Z,46.39
2023-03-13T13:41:07.667Z,46.41
2023-03-13T13:44:12.783Z,46.19
2023-03-13T13:46:45.374Z,46.28
2023-03-13T13:49:18.562Z,46.44
2023-03-13T13:52:18.491Z,46.17
2023-03-13T13:54:47.603Z,46.37
2023-03-13T13:57:27.230Z,45.77
2023-03-13T14:00:00.564Z,46.01
2023-03-13T14:02:38.350Z,45.50
2023-03-13T14:05:16.106Z,45.54
2023-03-13T14:07:46.371Z,45.94
2023-03-13T14:10:32.026Z,45.96
2023-03-13T14:13:00.400Z,46.03
2023-03-13T14:15:31.951Z,45.43
2023-03-13T14:18:30.501Z,46.02
2023-03-13T14:21:03.592Z,45.51
2023-03-13T14:23:52.897Z,45.72
2023-03-13T14:26:21.074Z,45.79
2023-03-13T14:28:53.460Z,45.29
2023-03-13T14:31:25.899Z,44.91
2023-03-13T14:33:53.006Z,45.23
2023-03-13T14:36:19.994Z,45.38
2023-03-13T14:38:57.480Z,45.06
2023-03-13T14:41:30.553Z,45.26
2023-03-13T14:44:05.286Z,45.66
2023-03-13T14:46:37.111Z,45.08
2023-03-13T14:49:15.246Z,45.66
2023-03-13T14:51:41.935Z,45.29
2023-03-13T14:54:26.810Z,45.08
2023-03-13T14:57:05.593Z,45.40
2023-03-13T14:59:32.242Z,45.55
2023-03-13T15:02:24.201Z,45.03
2023-03-13T15:05:01.088Z,45.08
2023-03-13T15:07:38.366Z,45.76
2023-03-13T15:10:26.687Z,45.20
2023-03-13T15:12:53.312Z,45.01
2023-03-13T15:15:19.809Z,45.65
2023-03-13T15:17:46.561Z,45.68
2023-03-13T15:20:15.399Z,44.97
2023-03-13T15:22:44.966Z,45.66
2023-03-13T15:25:23.704Z,45.75
2023-03-13T15:27:50.861Z,45.90
2023-03-13T15:30:19.705Z,45.59
2023-03-13T15:32:46.943Z,45.78
2023-03-13T15:35:27.591Z,45.76
2023-03-13T15:37:55.358Z,45.62
2023-03-13T15:40:24.174Z,45.87
2023-03-13T15:42:52.067Z,45.68
2023-03-13T15:45:18.828Z,45.33
2023-03-13T15:47:46.245Z,45.20
2023-03-13T15:50:14.665Z,44.93
2023-03-13T15:52:41.255Z,45.68
2023-03-13T15:55:10.282Z,45.10
2023-03-13T15:57:41.941Z,45.54
2023-03-13T16:00:34.671Z,45.29
2023-03-13T16:03:01.319Z,45.16
2023-03-13T16:05:29.059Z,45.08
2023-03-13T16:07:55.773Z,45.18
2023-03-13T16:10:26.482Z,45.47
2023-03-13T16:12:56.115Z,45.82
2023-03-13T16:15:24.399Z,45.06
2023-03-13T16:17:50.962Z,45.00
2023-03-13T16:20:20.880Z,45.60
2023-03-13T16:22:47.987Z,45.29
2023-03-13T16:25:14.714Z,45.10
2023-03-13T16:27:42.030Z,45.48
2023-03-13T16:30:41.340Z,45.09
2023-03-13T16:33:08.024Z,45.15
2023-03-13T16:35:35.394Z,45.66
2023-03-13T16:38:02.558Z,44.99
2023-03-13T16:40:33.426Z,45.34
2023-03-13T16:43:00.437Z,45.19
2023-03-13T16:45:27.288Z,44.78
2023-03-13T16:47:53.864Z,45.21
2023-03-13T16:50:28.711Z,46.02
2023-03-13T16:52:55.668Z,46.04
2023-03-13T16:55:28.022Z,46.44
2023-03-13T16:57:56.825Z,45.80
2023-03-13T17:00:25.896Z,46.12
2023-03-13T17:02:52.592Z,46.97
2023-03-13T17:05:19.464Z,46.60
2023-03-13T17:07:48.544Z,46.76
2023-03-13T17:10:26.857Z,47.30
2023-03-13T17:12:53.389Z,46.76
2023-03-13T17:15:21.217Z,46.71
2023-03-13T17:17:51.898Z,46.40
2023-03-13T17:20:21.754Z,46.44
2023-03-13T17:22:48.411Z,45.66
2023-03-13T17:25:15.274Z,45.80
2023-03-13T17:27:43.255Z,45.44
2023-03-13T17:30:22.703Z,45.59
2023-03-13T17:32:50.369Z,45.69
2023-03-13T17:35:18.967Z,45.39
2023-03-13T17:37:45.730Z,45.60
2023-03-13T17:40:18.600Z,45.73
2023-03-13T17:42:45.174Z,45.79
2023-03-13T17:45:13.049Z,45.97
2023-03-13T17:47:40.569Z,45.67
2023-03-13T17:50:27.194Z,45.60
2023-03-13T17:52:54.423Z,46.25
2023-03-13T17:55:21.726Z,46.48
2023-03-13T17:57:48.873Z,45.76
2023-03-13T18:00:29.121Z,46.35
2023-03-13T18:02:56.537Z,45.91
2023-03-13T18:05:23.095Z,45.81
2023-03-13T18:07:49.912Z,45.88
2023-03-13T18:10:25.582Z,46.10
2023-03-13T18:12:52.615Z,45.71
2023-03-13T18:15:21.182Z,46.40
2023-03-13T18:17:48.384Z,45.61
2023-03-13T18:20:21.036Z,45.92
2023-03-13T18:22:47.894Z,45.60
2023-03-13T18:25:14.881Z,45.29
2023-03-13T18:27:41.529Z,45.77
2023-03-13T18:30:20.279Z,45.33
2023-03-13T18:32:47.341Z,45.41
2023-03-13T18:35:14.516Z,45.48
2023-03-13T18:37:43.063Z,45.39
2023-03-13T18:40:17.906Z,45.17
2023-03-13T18:42:44.739Z,45.04
2023-03-13T18:45:23.310Z,45.06
2023-03-13T18:47:50.032Z,44.71
2023-03-13T18:50:26.458Z,45.01
2023-03-13T18:52:58.580Z,45.07
2023-03-13T18:55:27.336Z,44.95
2023-03-13T18:57:54.679Z,45.17
2023-03-13T19:00:27.034Z,44.83
2023-03-13T19:02:53.661Z,45.15
2023-03-13T19:05:20.536Z,44.88
2023-03-13T19:07:47.250Z,45.08
2023-03-13T19:10:29.035Z,44.97
2023-03-13T19:12:56.545Z,44.54
2023-03-13T19:15:27.335Z,45.24
2023-03-13T19:17:56.153Z,44.59
2023-03-13T19:20:23.780Z,44.96
2023-03-13T19:22:50.354Z,45.06
2023-03-13T19:25:17.526Z,45.14
2023-03-13T19:27:44.852Z,45.22
2023-03-13T19:30:25.363Z,45.44
2023-03-13T19:32:52.373Z,45.28
2023-03-13T19:35:21.124Z,45.51
2023-03-13T19:37:48.376Z,44.94
2023-03-13T19:40:19.504Z,44.93
2023-03-13T19:42:46.154Z,45.12
2023-03-13T19:45:13.199Z,45.11
2023-03-13T19:47:39.770Z,45.24
2023-03-13T19:50:06.834Z,45.22
2023-03-13T19:52:33.434Z,45.39
2023-03-13T19:55:05.137Z,45.83
2023-03-13T19:57:31.923Z,45.22
2023-03-13T19:59:58.447Z,45.61
2023-03-13T20:02:25.043Z,46.10
2023-03-13T20:04:51.611Z,46.03
2023-03-13T20:07:18.236Z,45.99
2023-03-13T20:09:44.828Z,46.24
2023-03-13T20:12:11.410Z,46.13
2023-03-13T20:14:38.198Z,46.33
2023-03-13T20:17:04.881Z,46.37
2023-03-13T20:19:31.528Z,46.56
2023-03-13T20:22:03.384Z,46.37
2023-03-13T20:24:33.453Z,46.14
2023-03-13T20:27:00.609Z,46.05
2023-03-13T20:29:27.331Z,46.41
2023-03-13T20:31:53.888Z,46.19
2023-03-13T20:34:20.455Z,46.77
2023-03-13T20:36:46.991Z,46.83
2023-03-13T20:39:13.664Z,46.58
2023-03-13T20:41:40.165Z,46.94
2023-03-13T20:44:06.655Z,46.50
2023-03-13T20:46:33.300Z,47.07
2023-03-13T20:48:59.911Z,46.30
2023-03-13T20:51:27.740Z,46.57
2023-03-13T20:53:54.253Z,46.80
2023-03-13T20:56:20.888Z,46.51
2023-03-13T20:58:47.421Z,46.80
2023-03-13T21:01:13.986Z,47.05
2023-03-13T21:03:40.723Z,47.24
2023-03-13T21:06:15.647Z,46.78
2023-03-13T21:08:42.614Z,47.07
2023-03-13T21:11:20.803Z,46.90
2023-03-13T21:13:48.397Z,47.12
2023-03-13T21:16:16.453Z,46.74
2023-03-13T21:18:43.440Z,46.80
2023-03-13T21:21:14.835Z,46.62
2023-03-13T21:23:41.422Z,46.49
2023-03-13T21:26:07.940Z,46.59
2023-03-13T21:28:34.598Z,47.00
2023-03-13T21:31:18.278Z,46.64
2023-03-13T21:33:46.177Z,46.72
2023-03-13T21:36:14.562Z,46.92
2023-03-13T21:38:41.435Z,46.59
2023-03-13T21:41:09.820Z,46.75
2023-03-13T21:43:37.357Z,46.89
2023-03-13T21:46:04.029Z,46.80
2023-03-13T21:48:30.555Z,46.96
2023-03-13T21:50:57.126Z,46.73
2023-03-13T21:53:23.830Z,46.73
2023-03-13T21:55:51.428Z,46.61
2023-03-13T21:58:18.471Z,46.47
2023-03-13T22:00:45.070Z,46.74
2023-03-13T22:03:11.662Z,46.43
2023-03-13T22:05:43.060Z,46.89
2023-03-13T22:08:10.542Z,46.47
2023-03-13T22:10:38.097Z,46.72
2023-03-13T22:13:05.937Z,46.75
2023-03-13T22:15:34.546Z,46.81
2023-03-13T22:18:01.128Z,46.65
2023-03-13T22:20:27.848Z,46.70
2023-03-13T22:22:54.393Z,46.95
2023-03-13T22:25:20.986Z,46.76
2023-03-13T22:27:47.512Z,46.74
2023-03-13T22:30:14.522Z,46.74
2023-03-13T22:32:41.115Z,46.46
2023-03-13T22:35:08.630Z,46.66
2023-03-13T22:37:35.231Z,46.75
2023-03-13T22:40:02.021Z,46.93
2023-03-13T22:42:28.553Z,46.72
2023-03-13T22:44:55.757Z,46.41
2023-03-13T22:47:23.052Z,46.56
2023-03-13T22:49:50.354Z,46.32
2023-03-13T22:52:16.919Z,46.70
2023-03-13T22:54:46.365Z,46.04
2023-03-13T22:57:13.360Z,46.44
2023-03-13T22:59:39.867Z,46.29
2023-03-13T23:02:06.425Z,46.27
2023-03-13T23:04:32.922Z,46.17
2023-03-13T23:06:59.456Z,46.48
2023-03-13T23:09:25.940Z,46.30
2023-03-13T23:11:52.505Z,46.31
2023-03-13T23:14:19.015Z,46.04
2023-03-13T23:16:45.681Z,46.05
2023-03-13T23:19:12.256Z,46.11
2023-03-13T23:21:38.849Z,45.98
2023-03-13T23:24:05.719Z,46.58
2023-03-13T23:26:32.213Z,46.15
2023-03-13T23:28:58.741Z,45.83
2023-03-13T23:31:25.272Z,46.24
2023-03-13T23:33:51.819Z,46.09
2023-03-13T23:36:19.097Z,45.78
2023-03-13T23:38:49.875Z,46.15
2023-03-13T23:41:16.516Z,46.44
2023-03-13T23:43:43.083Z,46.30
2023-03-13T23:46:27.768Z,46.03
2023-03-13T23:48:56.295Z,45.87
2023-03-13T23:51:23.232Z,46.23
2023-03-13T23:53:50.152Z,46.03
2023-03-13T23:56:17.032Z,46.14
2023-03-13T23:58:44.215Z,46.23
